Time;durP1;ratioP1;P1;durP2;ratioP2;P2;SDS_P1;SDS_P2;PMS_P1;PMS_P2;Temp;Humidity;BMP_temperature;BMP_pressure;BME280_temperature;BME280_humidity;BME280_pressure;Samples;Min_cycle;Max_cycle;Signal;HPM_P1;HPM_P2
2022/03/12 00:01:15;;;;;;;2.85;2.58;;;9.50;50.90;;;;;;5047648;28;20646;-72
2022/03/12 00:03:42;;;;;;;3.40;3.10;;;9.60;50.90;;;;;;5046529;28;20201;-71
2022/03/12 00:06:09;;;;;;;4.70;3.20;;;9.50;51.00;;;;;;5049476;28;20301;-72
2022/03/12 00:08:42;;;;;;;2.97;2.67;;;9.50;51.10;;;;;;5052279;28;20455;-72
2022/03/12 00:11:11;;;;;;;2.75;2.55;;;9.50;51.20;;;;;;5052343;28;20276;-71
2022/03/12 00:13:38;;;;;;;4.72;3.60;;;9.50;51.30;;;;;;5051913;28;20305;-72
2022/03/12 00:16:09;;;;;;;4.53;3.40;;;9.50;51.20;;;;;;5052754;28;20265;-70
2022/03/12 00:18:35;;;;;;;4.22;3.20;;;9.50;51.40;;;;;;5050433;28;20198;-70
2022/03/12 00:21:05;;;;;;;5.97;3.53;;;9.50;51.40;;;;;;5048330;28;20202;-71
2022/03/12 00:23:33;;;;;;;3.60;3.10;;;9.50;51.40;;;;;;5044924;28;20555;-71
2022/03/12 00:26:00;;;;;;;5.43;3.78;;;9.40;51.60;;;;;;5035217;28;21335;-76
2022/03/12 00:28:28;;;;;;;23.70;22.10;;;9.40;51.60;;;;;;5048023;28;20205;-72
2022/03/12 00:30:55;;;;;;;269.25;257.40;;;9.40;51.80;;;;;;5049047;28;20559;-72
2022/03/12 00:33:24;;;;;;;3.13;2.83;;;9.40;51.90;;;;;;5047465;28;20202;-71
2022/03/12 00:35:51;;;;;;;214.57;205.60;;;9.40;51.70;;;;;;5048352;28;20750;-72
2022/03/12 00:38:21;;;;;;;4.20;3.28;;;9.40;51.90;;;;;;5047495;28;20267;-71
2022/03/12 00:40:48;;;;;;;389.35;372.77;;;9.40;51.70;;;;;;5046944;28;20336;-77
2022/03/12 00:43:15;;;;;;;40.97;38.50;;;9.40;51.90;;;;;;5047270;28;20275;-72
2022/03/12 00:45:43;;;;;;;4.93;3.55;;;9.40;52.00;;;;;;5048224;28;20241;-72
2022/03/12 00:48:10;;;;;;;4.30;3.90;;;9.40;52.20;;;;;;5044079;28;20287;-72
2022/03/12 00:50:37;;;;;;;3.97;3.40;;;9.40;52.20;;;;;;5050181;28;20206;-70
2022/03/12 00:53:04;;;;;;;3.58;3.10;;;9.40;52.40;;;;;;5049084;28;20209;-72
2022/03/12 00:55:31;;;;;;;4.57;3.03;;;9.30;52.40;;;;;;5048370;28;20334;-72
2022/03/12 00:57:58;;;;;;;3.72;3.40;;;9.30;52.50;;;;;;5048841;28;20205;-72
2022/03/12 01:00:26;;;;;;;3.92;3.50;;;9.30;52.60;;;;;;5047195;28;20736;-72
2022/03/12 01:02:54;;;;;;;4.25;2.83;;;9.30;52.60;;;;;;5046921;28;20255;-71
2022/03/12 01:05:24;;;;;;;11.10;4.40;;;9.30;52.70;;;;;;5047015;28;20351;-72
2022/03/12 01:07:51;;;;;;;6.00;3.17;;;9.30;52.80;;;;;;5047847;28;20218;-72
2022/03/12 01:10:17;;;;;;;3.88;3.05;;;9.30;52.70;;;;;;5048094;28;20244;-72
2022/03/12 01:12:44;;;;;;;3.72;3.25;;;9.30;52.90;;;;;;5046867;28;20279;-72
2022/03/12 01:15:12;;;;;;;5.90;3.03;;;9.30;53.00;;;;;;5046016;28;20229;-72
2022/03/12 01:17:41;;;;;;;2.60;2.40;;;9.30;53.10;;;;;;5049011;28;20282;-71
2022/03/12 01:20:10;;;;;;;5.80;4.00;;;9.20;52.90;;;;;;5046988;28;20291;-72
2022/03/12 01:22:37;;;;;;;3.30;3.10;;;9.20;53.10;;;;;;5046504;28;20974;-72
2022/03/12 01:25:05;;;;;;;2.95;2.50;;;9.20;53.20;;;;;;5046750;28;20305;-72
2022/03/12 01:27:32;;;;;;;3.40;2.63;;;9.20;53.10;;;;;;5049019;28;20301;-72
2022/03/12 01:29:58;;;;;;;3.95;3.28;;;9.20;53.30;;;;;;5047986;28;20282;-71
2022/03/12 01:32:25;;;;;;;2.83;2.50;;;9.20;53.50;;;;;;5045143;28;20206;-71
2022/03/12 01:34:52;;;;;;;4.35;3.22;;;9.20;53.40;;;;;;5047042;28;20225;-72
2022/03/12 01:37:21;;;;;;;3.60;3.30;;;9.20;53.60;;;;;;5047104;28;20694;-72
2022/03/12 01:39:48;;;;;;;4.72;4.13;;;9.10;53.60;;;;;;5046651;28;20224;-72
2022/03/12 01:42:15;;;;;;;2.75;2.33;;;9.10;53.80;;;;;;5047174;28;20627;-72
2022/03/12 01:44:43;;;;;;;3.58;3.28;;;9.10;53.70;;;;;;5046129;28;20221;-72
2022/03/12 01:47:11;;;;;;;4.50;2.92;;;9.10;53.80;;;;;;5046396;28;20687;-72
2022/03/12 01:49:38;;;;;;;3.33;3.03;;;9.00;54.20;;;;;;5046939;28;20214;-72
2022/03/12 01:52:07;;;;;;;4.30;3.15;;;9.00;54.30;;;;;;5047155;28;20194;-72
2022/03/12 01:54:36;;;;;;;6.80;2.38;;;9.00;54.20;;;;;;5046766;28;20248;-70
2022/03/12 01:57:04;;;;;;;3.97;2.58;;;9.00;54.30;;;;;;5046571;28;20925;-72
2022/03/12 01:59:30;;;;;;;4.47;3.30;;;9.00;54.30;;;;;;5044965;28;20811;-72
2022/03/12 02:01:57;;;;;;;3.63;2.88;;;9.00;54.40;;;;;;5038114;28;20280;-72
2022/03/12 02:04:25;;;;;;;3.78;3.40;;;9.00;54.50;;;;;;5043675;28;20324;-72
2022/03/12 02:06:52;;;;;;;3.78;2.92;;;9.00;54.60;;;;;;5045946;28;20216;-72
2022/03/12 02:09:20;;;;;;;4.97;4.03;;;9.00;54.60;;;;;;5045959;28;20296;-72
2022/03/12 02:11:50;;;;;;;4.72;3.58;;;8.90;54.70;;;;;;5047443;28;20209;-71
2022/03/12 02:14:19;;;;;;;3.45;2.35;;;8.90;54.70;;;;;;5048883;28;20233;-71
2022/03/12 02:16:49;;;;;;;4.05;3.72;;;9.00;54.80;;;;;;5046850;28;20701;-72
2022/03/12 02:19:17;;;;;;;14.80;3.42;;;8.90;54.70;;;;;;5046377;28;20342;-72
2022/03/12 02:21:49;;;;;;;3.88;3.22;;;8.90;54.70;;;;;;5045510;28;20396;-72
2022/03/12 02:24:20;;;;;;;4.30;3.35;;;8.90;54.90;;;;;;5045905;28;20228;-73
2022/03/12 02:26:48;;;;;;;5.68;3.25;;;8.90;54.80;;;;;;5045853;28;20228;-72
2022/03/12 02:29:20;;;;;;;4.75;3.50;;;8.90;55.00;;;;;;5045759;28;20220;-72
2022/03/12 02:31:51;;;;;;;4.80;3.40;;;8.90;55.10;;;;;;5045289;28;20201;-72
2022/03/12 02:34:22;;;;;;;7.65;3.40;;;8.90;55.10;;;;;;5045141;28;20229;-72
2022/03/12 02:36:50;;;;;;;5.15;3.55;;;8.90;55.80;;;;;;5044528;28;20197;-72
2022/03/12 02:39:21;;;;;;;2.80;2.60;;;8.90;55.20;;;;;;5044748;28;20281;-72
2022/03/12 02:41:48;;;;;;;4.45;2.70;;;8.90;55.40;;;;;;5044482;28;20310;-72
2022/03/12 02:44:19;;;;;;;4.30;3.90;;;8.80;55.90;;;;;;5044535;28;20237;-72
2022/03/12 02:47:14;;;;;;;3.42;2.45;;;8.80;56.30;;;;;;5045083;28;20688;-72
2022/03/12 02:49:45;;;;;;;5.15;4.30;;;8.80;56.00;;;;;;5043945;28;20208;-72
2022/03/12 02:52:12;;;;;;;4.43;2.83;;;8.80;55.90;;;;;;5043792;28;20648;-71
2022/03/12 02:54:38;;;;;;;3.78;2.80;;;8.80;56.10;;;;;;5054388;28;20229;-71
2022/03/12 02:57:05;;;;;;;4.93;4.25;;;8.70;56.00;;;;;;5044481;28;20255;-71
2022/03/12 02:59:33;;;;;;;5.63;3.05;;;8.80;56.50;;;;;;5044814;28;20267;-71
2022/03/12 03:02:03;;;;;;;3.22;2.95;;;8.70;56.70;;;;;;5043652;28;20887;-71
2022/03/12 03:04:35;;;;;;;4.03;3.50;;;8.70;56.00;;;;;;5043855;28;20232;-71
2022/03/12 03:07:02;;;;;;;4.07;3.67;;;8.70;56.20;;;;;;5041219;28;20233;-71
2022/03/12 03:09:29;;;;;;;4.72;3.33;;;8.70;56.30;;;;;;5044628;28;20214;-71
2022/03/12 03:11:57;;;;;;;5.10;4.38;;;8.60;56.30;;;;;;5044493;28;20674;-71
2022/03/12 03:14:26;;;;;;;3.50;3.20;;;8.70;57.00;;;;;;5043640;28;20257;-71
2022/03/12 03:16:53;;;;;;;4.00;3.60;;;8.60;57.00;;;;;;5045105;28;20338;-71
2022/03/12 03:19:25;;;;;;;3.25;3.03;;;8.60;56.70;;;;;;5043779;28;20296;-71
2022/03/12 03:21:54;;;;;;;3.60;3.30;;;8.60;57.00;;;;;;5044614;28;20236;-72
2022/03/12 03:24:22;;;;;;;5.30;4.05;;;8.60;57.40;;;;;;5044381;28;20229;-71
2022/03/12 03:26:54;;;;;;;8.18;3.53;;;8.60;58.60;;;;;;5043712;28;20271;-72
2022/03/12 03:29:21;;;;;;;4.00;3.58;;;8.60;58.90;;;;;;5044454;28;20287;-71
2022/03/12 03:31:48;;;;;;;3.90;3.05;;;8.50;59.00;;;;;;5043733;28;20664;-71
2022/03/12 03:34:15;;;;;;;4.05;3.28;;;8.50;59.00;;;;;;5041469;28;20279;-71
2022/03/12 03:36:42;;;;;;;6.97;3.35;;;8.40;59.00;;;;;;5044134;28;20205;-72
2022/03/12 03:39:10;;;;;;;4.00;3.60;;;8.40;60.60;;;;;;5044814;28;20197;-71
2022/03/12 03:41:37;;;;;;;4.88;3.20;;;8.30;60.50;;;;;;5044782;28;20283;-71
2022/03/12 03:44:06;;;;;;;3.38;3.08;;;8.30;60.60;;;;;;5045528;28;20319;-72
2022/03/12 03:46:33;;;;;;;5.20;4.15;;;8.30;60.30;;;;;;5045440;28;20280;-71
2022/03/12 03:49:00;;;;;;;3.00;2.72;;;8.30;59.70;;;;;;5045982;28;20215;-71
2022/03/12 03:51:26;;;;;;;3.75;3.38;;;8.30;59.10;;;;;;5045689;28;20285;-73
2022/03/12 03:53:53;;;;;;;4.90;4.45;;;8.30;59.10;;;;;;5049869;28;20237;-71
2022/03/12 03:56:23;;;;;;;3.60;3.22;;;8.20;59.30;;;;;;5051962;28;20585;-71
2022/03/12 03:58:49;;;;;;;6.95;3.25;;;8.30;59.20;;;;;;5045688;28;20189;-71
2022/03/12 04:01:18;;;;;;;3.25;3.00;;;8.30;59.30;;;;;;5044934;28;20256;-72
2022/03/12 04:03:48;;;;;;;5.47;3.53;;;8.20;59.10;;;;;;5053165;28;20210;-72
2022/03/12 04:06:15;;;;;;;5.60;3.30;;;8.20;59.00;;;;;;5082825;22;20285;-68
2022/03/12 04:08:42;;;;;;;3.88;3.00;;;8.30;58.90;;;;;;5071387;28;20229;-68
2022/03/12 04:11:15;;;;;;;6.57;4.05;;;8.30;58.70;;;;;;5071121;28;20224;-68
2022/03/12 04:13:43;;;;;;;4.15;2.80;;;8.30;58.50;;;;;;5068732;28;20292;-67
2022/03/12 04:16:10;;;;;;;4.97;3.70;;;8.30;58.70;;;;;;5070433;28;20229;-69
2022/03/12 04:18:39;;;;;;;5.20;3.55;;;8.30;58.60;;;;;;5069453;28;20927;-68
2022/03/12 04:21:06;;;;;;;4.35;3.65;;;8.30;58.60;;;;;;5069508;28;20866;-68
2022/03/12 04:23:34;;;;;;;4.72;3.65;;;8.30;58.60;;;;;;5069921;28;20208;-68
2022/03/12 04:26:02;;;;;;;5.18;4.25;;;8.30;58.60;;;;;;5071703;28;20268;-68
2022/03/12 04:28:32;;;;;;;5.22;3.22;;;8.30;58.90;;;;;;5069922;28;20232;-69
2022/03/12 04:31:00;;;;;;;3.42;3.17;;;8.20;58.90;;;;;;5070478;28;20202;-69
2022/03/12 04:33:28;;;;;;;4.25;3.13;;;8.20;59.00;;;;;;5071438;28;20229;-72
2022/03/12 04:35:56;;;;;;;4.20;3.88;;;8.20;58.90;;;;;;5070260;28;20221;-69
2022/03/12 04:38:23;;;;;;;4.63;3.78;;;8.20;59.00;;;;;;5072133;28;20201;-69
2022/03/12 04:40:50;;;;;;;5.78;3.60;;;8.20;59.40;;;;;;5072199;28;20250;-69
2022/03/12 04:43:17;;;;;;;3.15;2.85;;;8.20;59.30;;;;;;5071977;28;20196;-69
2022/03/12 04:45:46;;;;;;;5.18;3.70;;;8.10;59.50;;;;;;5071922;28;20718;-68
2022/03/12 04:48:16;;;;;;;4.43;3.40;;;8.10;59.80;;;;;;5072391;28;20771;-68
2022/03/12 04:50:43;;;;;;;5.45;3.85;;;8.10;60.00;;;;;;5071985;28;20200;-69
2022/03/12 04:53:10;;;;;;;4.53;3.65;;;8.10;60.00;;;;;;5072192;28;20201;-69
2022/03/12 04:55:37;;;;;;;4.20;2.90;;;8.00;59.90;;;;;;5072265;28;20266;-69
2022/03/12 04:58:05;;;;;;;4.35;3.47;;;8.00;59.80;;;;;;5071505;28;20192;-69
2022/03/12 05:00:35;;;;;;;4.00;3.60;;;8.00;59.70;;;;;;5067184;28;20204;-68
2022/03/12 05:03:05;;;;;;;3.28;2.33;;;8.00;60.00;;;;;;5072787;28;20196;-68
2022/03/12 05:05:32;;;;;;;5.68;3.58;;;8.00;60.20;;;;;;5072893;28;20267;-69
2022/03/12 05:07:59;;;;;;;8.27;3.70;;;8.00;60.30;;;;;;5075354;28;20247;-68
2022/03/12 05:10:29;;;;;;;3.50;2.80;;;7.90;60.40;;;;;;5076165;28;20232;-68
2022/03/12 05:12:58;;;;;;;6.32;3.30;;;8.00;60.80;;;;;;5074416;28;20212;-69
2022/03/12 05:15:25;;;;;;;4.47;2.83;;;8.00;60.80;;;;;;5070897;28;20263;-69
2022/03/12 05:17:51;;;;;;;5.68;4.00;;;7.90;60.80;;;;;;5071633;28;20250;-69
2022/03/12 05:20:21;;;;;;;4.75;3.90;;;7.90;61.10;;;;;;5076056;28;20257;-69
2022/03/12 05:22:49;;;;;;;4.10;3.28;;;7.90;61.40;;;;;;5075733;28;20254;-69
2022/03/12 05:25:19;;;;;;;5.18;3.05;;;7.90;61.70;;;;;;5074476;28;20274;-69
2022/03/12 05:27:46;;;;;;;3.70;3.40;;;7.90;61.90;;;;;;5075265;28;20232;-68
2022/03/12 05:30:13;;;;;;;5.05;3.85;;;7.90;61.80;;;;;;5075954;28;20205;-68
2022/03/12 05:32:39;;;;;;;3.40;3.10;;;7.90;62.00;;;;;;5071800;28;20226;-69
2022/03/12 05:35:07;;;;;;;5.78;3.80;;;7.90;62.20;;;;;;5073536;28;20224;-69
2022/03/12 05:37:36;;;;;;;4.15;3.30;;;7.90;62.40;;;;;;5071269;28;20274;-68
2022/03/12 05:40:07;;;;;;;4.30;3.75;;;7.90;62.70;;;;;;5070710;28;20201;-70
2022/03/12 05:42:34;;;;;;;4.07;2.88;;;7.90;62.90;;;;;;5071538;28;20701;-68
2022/03/12 05:45:01;;;;;;;3.92;3.53;;;7.90;63.30;;;;;;5072625;28;20619;-69
2022/03/12 05:47:28;;;;;;;6.53;3.42;;;7.90;63.70;;;;;;5064210;28;20273;-68
2022/03/12 05:49:54;;;;;;;3.75;3.22;;;7.80;64.00;;;;;;5071009;28;20219;-69
2022/03/12 05:52:21;;;;;;;4.25;3.80;;;7.80;64.70;;;;;;5070925;28;20201;-68
2022/03/12 05:54:48;;;;;;;3.78;3.33;;;7.80;65.30;;;;;;5070218;28;20281;-68
2022/03/12 05:57:16;;;;;;;5.53;3.75;;;7.80;65.70;;;;;;5069194;28;20205;-71
2022/03/12 05:59:43;;;;;;;5.63;3.55;;;7.70;66.20;;;;;;5070907;28;20199;-68
2022/03/12 06:02:09;;;;;;;4.47;4.07;;;7.60;66.50;;;;;;5067082;28;20206;-67
2022/03/12 06:04:36;;;;;;;4.18;3.35;;;7.70;67.20;;;;;;5069563;28;20213;-68
2022/03/12 06:07:03;;;;;;;5.40;4.30;;;7.70;67.50;;;;;;5069939;28;20208;-68
2022/03/12 06:09:30;;;;;;;4.57;3.70;;;7.60;67.70;;;;;;5070132;28;20247;-69
2022/03/12 06:11:57;;;;;;;3.88;2.55;;;7.60;68.10;;;;;;5070020;28;20216;-68
2022/03/12 06:14:25;;;;;;;6.43;3.65;;;7.60;68.90;;;;;;5069970;28;20211;-68
2022/03/12 06:16:52;;;;;;;4.40;3.47;;;7.70;69.40;;;;;;5068104;28;20202;-68
2022/03/12 06:19:19;;;;;;;2.97;2.67;;;7.60;69.40;;;;;;5068267;28;20223;-69
2022/03/12 06:21:46;;;;;;;5.60;3.20;;;7.70;69.90;;;;;;5069895;28;20205;-69
2022/03/12 06:24:14;;;;;;;6.18;4.07;;;7.60;70.00;;;;;;5069016;28;20246;-68
2022/03/12 06:26:43;;;;;;;4.35;3.72;;;7.70;70.40;;;;;;5066933;28;20785;-68
2022/03/12 06:29:12;;;;;;;4.32;3.47;;;7.70;70.70;;;;;;5068571;28;20251;-69
2022/03/12 06:31:40;;;;;;;3.35;3.05;;;7.60;70.70;;;;;;5069337;28;20208;-67
2022/03/12 06:34:09;;;;;;;3.85;3.45;;;7.70;71.00;;;;;;5068318;28;20212;-69
2022/03/12 06:36:36;;;;;;;7.22;3.28;;;7.70;71.40;;;;;;5069300;28;20721;-69
2022/03/12 06:39:03;;;;;;;3.78;3.47;;;7.70;71.50;;;;;;5069084;28;20204;-69
2022/03/12 06:41:31;;;;;;;4.25;3.92;;;7.80;71.80;;;;;;5068839;28;20258;-69
2022/03/12 06:43:57;;;;;;;3.88;2.83;;;7.80;72.00;;;;;;5066908;28;20212;-69
2022/03/12 06:46:24;;;;;;;5.55;3.47;;;7.80;72.10;;;;;;5069702;28;20262;-70
2022/03/12 06:48:52;;;;;;;3.85;3.42;;;7.80;72.40;;;;;;5062166;28;20219;-69
2022/03/12 06:51:20;;;;;;;5.10;3.67;;;7.90;72.60;;;;;;5069753;28;20200;-69
2022/03/12 06:53:46;;;;;;;3.75;3.05;;;8.00;73.00;;;;;;5068580;28;20216;-69
2022/03/12 06:56:13;;;;;;;2.90;2.60;;;8.00;73.10;;;;;;5069528;28;20217;-70
2022/03/12 06:58:40;;;;;;;3.55;3.25;;;8.10;73.60;;;;;;5068141;28;20197;-69
2022/03/12 07:01:07;;;;;;;3.92;3.50;;;8.20;74.10;;;;;;5068611;28;20254;-68
2022/03/12 07:03:33;;;;;;;8.40;3.85;;;8.20;73.90;;;;;;5067966;28;20201;-69
2022/03/12 07:06:02;;;;;;;4.40;4.00;;;8.30;74.00;;;;;;5069110;28;20670;-70
2022/03/12 07:08:28;;;;;;;4.50;3.55;;;8.40;74.00;;;;;;5067805;28;20675;-68
2022/03/12 07:10:56;;;;;;;3.67;2.92;;;8.40;74.00;;;;;;5068972;28;20205;-70
2022/03/12 07:13:23;;;;;;;3.40;3.05;;;8.40;73.90;;;;;;5067663;28;20616;-69
2022/03/12 07:15:50;;;;;;;4.18;3.15;;;8.50;74.00;;;;;;5068859;28;20275;-69
2022/03/12 07:18:17;;;;;;;3.80;3.45;;;8.50;74.10;;;;;;5068594;28;20208;-69
2022/03/12 07:20:44;;;;;;;4.45;3.72;;;8.60;74.30;;;;;;5064725;28;20256;-67
2022/03/12 07:23:12;;;;;;;5.15;4.20;;;8.70;74.70;;;;;;5068081;28;20197;-69
2022/03/12 07:25:39;;;;;;;3.25;2.47;;;8.80;74.80;;;;;;5068328;28;20779;-70
2022/03/12 07:28:06;;;;;;;3.42;3.13;;;8.90;75.10;;;;;;5068825;28;20953;-69
2022/03/12 07:30:33;;;;;;;4.97;3.47;;;9.00;75.30;;;;;;5067908;28;20208;-68
2022/03/12 07:33:00;;;;;;;7.28;3.25;;;9.10;75.60;;;;;;5066966;28;20629;-68
2022/03/12 07:35:27;;;;;;;9.50;3.97;;;9.10;75.60;;;;;;5067950;28;20740;-69
2022/03/12 07:37:54;;;;;;;4.57;3.40;;;9.20;75.80;;;;;;5069285;28;20682;-69
2022/03/12 07:40:22;;;;;;;4.70;4.20;;;9.20;75.90;;;;;;5070736;28;20208;-67
2022/03/12 07:42:50;;;;;;;5.90;4.25;;;9.20;75.70;;;;;;5067669;28;20209;-69
2022/03/12 07:45:17;;;;;;;6.05;4.05;;;9.30;76.00;;;;;;5067765;28;20229;-69
2022/03/12 07:47:44;;;;;;;3.75;3.08;;;9.30;76.20;;;;;;5067779;28;20267;-69
2022/03/12 07:50:11;;;;;;;3.33;3.03;;;9.40;76.20;;;;;;5067833;28;20217;-68
2022/03/12 07:52:38;;;;;;;4.90;4.10;;;9.50;76.80;;;;;;5064336;28;20198;-73
2022/03/12 07:55:09;;;;;;;4.15;3.72;;;9.60;77.10;;;;;;5063861;28;20228;-70
2022/03/12 07:57:38;;;;;;;4.20;3.77;;;9.60;77.10;;;;;;5063140;28;20193;-69
2022/03/12 08:00:06;;;;;;;3.73;3.13;;;9.70;77.20;;;;;;5066537;28;20458;-69
2022/03/12 08:02:33;;;;;;;3.90;3.03;;;9.80;77.00;;;;;;5064468;28;20481;-70
2022/03/12 08:04:59;;;;;;;5.03;3.67;;;9.90;76.70;;;;;;5066075;28;20482;-70
2022/03/12 08:07:28;;;;;;;3.83;3.53;;;10.00;75.60;;;;;;5065267;28;20505;-70
2022/03/12 08:09:56;;;;;;;4.33;3.57;;;10.00;75.70;;;;;;5073376;28;20475;-70
2022/03/12 08:12:25;;;;;;;4.53;3.87;;;10.10;75.80;;;;;;5087312;28;20451;-70
2022/03/12 08:14:53;;;;;;;4.60;4.03;;;10.30;75.80;;;;;;5086208;28;20532;-70
2022/03/12 08:17:20;;;;;;;8.40;4.30;;;10.40;75.90;;;;;;5087854;28;20447;-70
2022/03/12 08:19:47;;;;;;;4.57;3.50;;;10.50;76.10;;;;;;5074346;28;20811;-69
2022/03/12 08:22:14;;;;;;;6.47;4.37;;;10.60;76.60;;;;;;5069664;28;20961;-68
2022/03/12 08:24:41;;;;;;;3.97;3.57;;;10.60;76.80;;;;;;5069313;28;20832;-69
2022/03/12 08:27:08;;;;;;;4.83;3.90;;;10.70;77.40;;;;;;5073319;28;20491;-69
2022/03/12 08:29:35;;;;;;;6.40;3.30;;;10.80;77.60;;;;;;5073043;28;20480;-69
2022/03/12 08:32:07;;;;;;;5.20;3.40;;;11.00;77.80;;;;;;5072394;28;20463;-71
2022/03/12 08:34:34;;;;;;;7.27;3.77;;;11.00;78.00;;;;;;5071969;28;20447;-69
2022/03/12 08:37:01;;;;;;;7.20;4.30;;;11.10;78.40;;;;;;5070391;28;20467;-69
2022/03/12 08:39:28;;;;;;;4.77;3.27;;;11.10;78.60;;;;;;5067101;28;20875;-69
2022/03/12 08:41:55;;;;;;;4.97;4.47;;;11.20;78.80;;;;;;5074624;28;20452;-68
2022/03/12 08:44:22;;;;;;;5.37;3.90;;;11.30;79.00;;;;;;5071751;28;20525;-68
2022/03/12 08:46:48;;;;;;;4.67;3.60;;;11.50;79.40;;;;;;5073167;28;21262;-68
2022/03/12 08:49:18;;;;;;;5.17;3.70;;;11.70;80.00;;;;;;5068516;28;20484;-69
2022/03/12 08:51:45;;;;;;;5.43;3.43;;;11.90;80.30;;;;;;5072369;28;20511;-69
2022/03/12 08:54:12;;;;;;;5.77;3.80;;;12.10;80.20;;;;;;5073109;28;20451;-68
2022/03/12 08:56:39;;;;;;;5.67;4.40;;;12.30;80.20;;;;;;5072938;28;20516;-69
2022/03/12 08:59:07;;;;;;;8.33;4.90;;;12.60;80.60;;;;;;5073218;28;20505;-68
2022/03/12 09:01:34;;;;;;;4.83;4.27;;;12.80;79.60;;;;;;5072834;28;20517;-68
2022/03/12 09:04:01;;;;;;;5.10;4.00;;;12.90;81.50;;;;;;5071382;28;20446;-69
2022/03/12 09:06:31;;;;;;;6.53;4.13;;;13.10;82.00;;;;;;5072948;28;20482;-70
2022/03/12 09:08:58;;;;;;;3.23;2.97;;;13.20;82.60;;;;;;5073360;28;20528;-70
2022/03/12 09:11:25;;;;;;;3.70;3.27;;;13.50;84.10;;;;;;5072886;28;20520;-70
2022/03/12 09:13:53;;;;;;;3.10;2.80;;;13.60;85.50;;;;;;5070336;28;20509;-70
2022/03/12 09:16:20;;;;;;;3.73;2.83;;;13.80;86.00;;;;;;5071147;28;21843;-69
2022/03/12 09:18:46;;;;;;;3.10;2.40;;;13.90;86.10;;;;;;5070197;28;20466;-69
2022/03/12 09:21:14;;;;;;;2.90;2.60;;;13.90;86.70;;;;;;5071266;28;20451;-70
2022/03/12 09:23:42;;;;;;;3.10;2.37;;;13.90;87.30;;;;;;5069688;28;20474;-70
2022/03/12 09:26:12;;;;;;;5.30;3.53;;;14.10;87.40;;;;;;5070861;28;21444;-70
2022/03/12 09:28:39;;;;;;;4.80;3.00;;;14.20;87.00;;;;;;5071563;28;20452;-70
2022/03/12 09:31:06;;;;;;;3.67;2.93;;;14.30;87.10;;;;;;5068633;28;20478;-70
2022/03/12 09:33:35;;;;;;;4.70;3.20;;;14.60;87.20;;;;;;5071218;28;20574;-70
2022/03/12 09:36:03;;;;;;;4.93;3.10;;;14.80;86.50;;;;;;5069015;28;20511;-71
2022/03/12 09:38:29;;;;;;;3.77;3.00;;;15.00;86.60;;;;;;5072349;28;20697;-70
2022/03/12 09:41:07;;;;;;;3.20;2.90;;;14.90;86.70;;;;;;5090243;28;20473;-70
2022/03/12 09:43:34;;;;;;;6.30;3.20;;;14.80;87.10;;;;;;5080567;28;20451;-74
2022/03/12 09:46:00;;;;;;;64.97;60.67;;;15.00;87.20;;;;;;5074073;28;20482;-71
2022/03/12 09:48:28;;;;;;;2.50;2.30;;;15.20;86.80;;;;;;5073210;28;20447;-70
2022/03/12 09:50:55;;;;;;;2.53;2.20;;;15.20;86.80;;;;;;5077390;28;20482;-70
2022/03/12 09:53:22;;;;;;;2.93;2.40;;;15.40;86.90;;;;;;5084337;28;20515;-71
2022/03/12 09:55:49;;;;;;;2.53;2.03;;;15.40;86.90;;;;;;5087360;28;20462;-70
2022/03/12 09:58:18;;;;;;;2.20;1.97;;;15.20;86.60;;;;;;5079013;28;20447;-70
2022/03/12 10:00:45;;;;;;;2.40;2.00;;;14.90;87.80;;;;;;5080115;28;20473;-70
2022/03/12 10:03:13;;;;;;;2.50;2.17;;;14.90;87.80;;;;;;5071469;28;21004;-71
2022/03/12 10:05:40;;;;;;;2.67;2.27;;;14.70;88.10;;;;;;5072081;28;20532;-69
2022/03/12 10:08:07;;;;;;;2.60;2.20;;;14.80;88.10;;;;;;5073270;28;20463;-71
2022/03/12 10:10:34;;;;;;;2.70;1.63;;;14.80;87.60;;;;;;5071903;28;20486;-71
2022/03/12 10:13:01;;;;;;;1.40;1.30;;;14.80;88.00;;;;;;5070047;28;20901;-70
2022/03/12 10:15:29;;;;;;;2.40;1.20;;;15.00;88.00;;;;;;5094748;22;20547;-71
2022/03/12 10:17:56;;;;;;;2.13;1.40;;;15.00;87.10;;;;;;5081277;28;20699;-71
2022/03/12 10:20:23;;;;;;;2.13;1.90;;;15.00;87.20;;;;;;5081129;28;20478;-71
2022/03/12 10:22:50;;;;;;;2.93;1.50;;;15.10;87.10;;;;;;5081139;28;20488;-71
2022/03/12 10:25:16;;;;;;;1.40;1.30;;;15.30;86.90;;;;;;5085704;28;20482;-71
2022/03/12 10:27:43;;;;;;;2.13;1.27;;;15.50;86.70;;;;;;5079716;28;21020;-71
2022/03/12 10:30:11;;;;;;;1.43;1.30;;;15.70;86.10;;;;;;5081536;28;20482;-70
2022/03/12 10:32:45;;;;;;;3.37;1.30;;;15.70;85.70;;;;;;5077006;28;20520;-70
2022/03/12 10:35:14;;;;;;;2.03;1.80;;;15.50;86.10;;;;;;5079596;28;20482;-71
2022/03/12 10:37:41;;;;;;;1.40;1.10;;;15.50;86.80;;;;;;5075515;28;20504;-66
2022/03/12 10:40:10;;;;;;;1.67;1.20;;;15.60;86.50;;;;;;5073902;28;21355;-65
2022/03/12 10:42:38;;;;;;;1.90;1.80;;;15.90;86.30;;;;;;5075692;28;20492;-65
2022/03/12 10:45:09;;;;;;;2.70;2.13;;;16.00;86.20;;;;;;5074416;28;20952;-65
2022/03/12 10:47:42;;;;;;;3.77;1.80;;;16.20;85.30;;;;;;5081546;28;20497;-66
2022/03/12 10:50:13;;;;;;;3.40;2.17;;;16.20;85.50;;;;;;5081008;28;20478;-65
2022/03/12 10:52:45;;;;;;;2.60;1.70;;;16.40;85.40;;;;;;5077589;28;20850;-64
2022/03/12 10:55:19;;;;;;;1.90;1.23;;;16.60;85.00;;;;;;5075737;28;20551;-65
2022/03/12 10:58:01;;;;;;;1.47;1.37;;;16.70;84.60;;;;;;5075562;28;20490;-63
2022/03/12 11:00:30;;;;;;;1.60;1.50;;;16.80;84.70;;;;;;5077479;28;20783;-65
2022/03/12 11:03:01;;;;;;;2.33;1.60;;;17.00;84.20;;;;;;5077298;28;20477;-65
2022/03/12 11:05:29;;;;;;;2.63;1.80;;;17.00;84.50;;;;;;5076035;28;20538;-64
2022/03/12 11:08:15;;;;;;;6.03;2.27;;;17.30;84.10;;;;;;5072440;28;20915;-66
2022/03/12 11:10:58;;;;;;;1.90;1.20;;;17.50;83.70;;;;;;5078736;28;21019;-66
2022/03/12 11:13:28;;;;;;;1.53;1.43;;;17.50;83.30;;;;;;5080346;28;20436;-64
2022/03/12 11:16:18;;;;;;;1.63;1.53;;;17.70;83.00;;;;;;5076160;28;20574;-66
2022/03/12 11:19:01;;;;;;;2.33;2.13;;;17.90;82.40;;;;;;5074458;28;20542;-62
2022/03/12 11:21:35;;;;;;;1.30;1.00;;;17.60;82.00;;;;;;5074872;28;20473;-64
2022/03/12 11:24:05;;;;;;;1.40;1.27;;;17.50;82.70;;;;;;5079362;28;20476;-65
2022/03/12 11:26:32;;;;;;;1.60;1.50;;;17.60;82.50;;;;;;5078491;28;20481;-64
2022/03/12 11:28:59;;;;;;;1.80;1.10;;;17.70;82.30;;;;;;5081540;28;20503;-64
2022/03/12 11:31:44;;;;;;;1.50;1.40;;;17.70;82.30;;;;;;5079897;28;20992;-64
2022/03/12 11:34:20;;;;;;;3.67;1.77;;;17.80;82.60;;;;;;5078104;28;20526;-67
2022/03/12 11:36:58;;;;;;;1.13;1.03;;;18.00;81.90;;;;;;5080440;28;21060;-65
2022/03/12 11:39:28;;;;;;;1.43;1.03;;;18.20;81.70;;;;;;5078022;28;20519;-64
2022/03/12 11:42:03;;;;;;;1.07;0.87;;;18.60;82.00;;;;;;5078932;28;20457;-64
2022/03/12 11:44:32;;;;;;;2.70;1.20;;;18.50;80.20;;;;;;5075455;28;20473;-65
2022/03/12 11:46:59;;;;;;;1.70;1.50;;;18.50;80.20;;;;;;5080224;28;20466;-66
2022/03/12 11:49:27;;;;;;;2.47;1.87;;;18.60;80.50;;;;;;5078765;28;20457;-66
2022/03/12 11:51:56;;;;;;;2.30;1.70;;;18.70;80.20;;;;;;5079264;28;20530;-66
2022/03/12 11:54:23;;;;;;;1.80;1.47;;;18.40;80.40;;;;;;5080704;28;20919;-66
2022/03/12 11:56:51;;;;;;;2.37;1.80;;;18.30;80.60;;;;;;5079285;28;21004;-66
2022/03/12 11:59:18;;;;;;;1.20;1.00;;;18.20;80.50;;;;;;5076381;28;20582;-65
2022/03/12 12:02:00;;;;;;;1.53;1.43;;;18.30;80.90;;;;;;5076910;28;20512;-66
2022/03/12 12:04:30;;;;;;;2.20;1.40;;;18.20;80.90;;;;;;5074158;28;20515;-65
2022/03/12 12:06:58;;;;;;;1.47;1.20;;;18.10;80.80;;;;;;5076750;28;20564;-69
2022/03/12 12:09:25;;;;;;;1.67;1.37;;;18.10;80.80;;;;;;5079862;28;20554;-73
2022/03/12 12:11:53;;;;;;;1.50;1.27;;;17.80;80.60;;;;;;5078264;28;20858;-74
2022/03/12 12:14:19;;;;;;;1.60;1.20;;;17.50;81.20;;;;;;5077729;28;20470;-73
2022/03/12 12:16:46;;;;;;;1.60;1.10;;;17.50;81.40;;;;;;5084800;28;20856;-74
2022/03/12 12:19:13;;;;;;;1.17;1.07;;;17.50;81.10;;;;;;5087681;28;20462;-73
2022/03/12 12:21:41;;;;;;;1.20;0.80;;;17.80;81.10;;;;;;5087922;28;21037;-75
2022/03/12 12:24:27;;;;;;;1.03;0.90;;;17.60;80.70;;;;;;5088817;28;20428;-74
2022/03/12 12:27:02;;;;;;;1.60;1.40;;;17.90;80.80;;;;;;5086821;28;20507;-75
2022/03/12 12:29:51;;;;;;;1.00;0.90;;;17.90;81.00;;;;;;5082033;28;20484;-76
2022/03/12 12:32:20;;;;;;;1.07;0.93;;;17.90;80.20;;;;;;5078551;28;20532;-76
2022/03/12 12:35:05;;;;;;;1.37;0.97;;;18.10;80.40;;;;;;5083603;28;20454;-73
2022/03/12 12:37:58;;;;;;;412.35;388.92;;;18.10;80.20;;;;;;5082366;28;20549;-75
2022/03/12 12:40:29;;;;;;;243.15;229.70;;;18.40;79.80;;;;;;5063456;28;20230;-73
2022/03/12 12:43:01;;;;;;;53.90;50.10;;;19.20;79.20;;;;;;5083488;28;20221;-75
2022/03/12 12:45:29;;;;;;;1.60;1.50;;;19.80;78.10;;;;;;5083603;28;20875;-72
2022/03/12 12:48:07;;;;;;;2.33;1.60;;;20.30;77.40;;;;;;5084134;28;20464;-76
2022/03/12 12:50:35;;;;;;;2.10;1.80;;;21.10;76.20;;;;;;5084777;28;20537;-74
2022/03/12 12:53:15;;;;;;;2.73;2.33;;;21.30;74.90;;;;;;5082276;28;20438;-75
2022/03/12 12:55:45;;;;;;;3.03;2.00;;;20.90;75.10;;;;;;5083201;28;20445;-76
2022/03/12 12:58:13;;;;;;;1.83;1.60;;;20.50;75.60;;;;;;5086250;28;20474;-74
2022/03/12 13:00:42;;;;;;;2.50;2.13;;;20.60;75.50;;;;;;5083628;28;20417;-75